Time;durP1;ratioP1;P1;durP2;ratioP2;P2;SDS_P1;SDS_P2;PMS_P1;PMS_P2;Temp;Humidity;BMP_temperature;BMP_pressure;BME280_temperature;BME280_humidity;BME280_pressure;Samples;Min_cycle;Max_cycle;Signal;HPM_P1;HPM_P2
2022/06/10 00:01:13;;;;;;;32.17;21.08;;;;;;;9.60;100.00;101919.31;10495332;28;20036;-75
2022/06/10 00:06:14;;;;;;;27.85;18.92;;;;;;;9.39;100.00;101911.81;10503084;28;20063;-75
2022/06/10 00:11:14;;;;;;;30.17;19.00;;;;;;;9.40;100.00;101911.00;10511311;28;20060;-75
2022/06/10 00:16:17;;;;;;;33.97;20.77;;;;;;;9.39;100.00;101917.03;10498750;28;20123;-75
2022/06/10 00:21:18;;;;;;;30.38;21.40;;;;;;;9.38;100.00;101923.06;10509858;28;20085;-75
2022/06/10 00:26:19;;;;;;;27.00;19.70;;;;;;;9.25;100.00;101922.19;10515423;28;20385;-75
2022/06/10 00:31:19;;;;;;;27.23;19.27;;;;;;;9.18;100.00;101913.81;10487477;28;20036;-75
2022/06/10 00:36:20;;;;;;;28.48;19.98;;;;;;;9.13;100.00;101907.34;10498043;28;20495;-75
2022/06/10 00:41:21;;;;;;;32.90;21.10;;;;;;;9.11;100.00;101909.88;10503940;28;20083;-75
2022/06/10 00:46:27;;;;;;;28.27;21.20;;;;;;;9.13;100.00;101909.97;10469248;28;20551;-76
2022/06/10 00:51:40;;;;;;;30.55;21.00;;;;;;;9.04;100.00;101912.84;10507924;28;20407;-75
2022/06/10 00:56:58;;;;;;;28.23;20.45;;;;;;;9.01;100.00;101916.13;10526642;28;20040;-76
2022/06/10 01:02:04;;;;;;;30.75;21.98;;;;;;;9.01;100.00;101913.53;10499206;28;20060;-75
2022/06/10 01:07:05;;;;;;;28.63;20.40;;;;;;;9.00;100.00;101911.72;10493841;28;20488;-76
2022/06/10 01:12:43;;;;;;;27.43;20.07;;;;;;;8.98;100.00;101921.16;10499141;28;20037;-75
2022/06/10 01:18:01;;;;;;;31.85;21.80;;;;;;;8.88;100.00;101918.69;10469923;28;20123;-75
2022/06/10 01:23:33;;;;;;;28.98;20.95;;;;;;;8.77;100.00;101917.91;10479870;28;20098;-76
2022/06/10 01:28:51;;;;;;;26.77;19.00;;;;;;;8.67;100.00;101911.13;10472472;28;20051;-75
2022/06/10 01:34:12;;;;;;;26.75;21.02;;;;;;;8.59;100.00;101910.59;10442535;28;20041;-76
2022/06/10 01:39:24;;;;;;;28.95;18.90;;;;;;;8.67;100.00;101916.34;10446222;28;20035;-76
2022/06/10 01:44:36;;;;;;;25.23;19.53;;;;;;;8.61;100.00;101916.81;10485072;28;20040;-78
2022/06/10 01:49:57;;;;;;;32.30;21.00;;;;;;;8.52;100.00;101904.00;10507860;28;20040;-77
2022/06/10 01:55:18;;;;;;;27.27;20.17;;;;;;;8.50;100.00;101913.41;10496776;28;20122;-77
2022/06/10 02:00:20;;;;;;;42.88;21.52;;;;;;;8.44;100.00;101918.16;10526058;28;20055;-77
2022/06/10 02:05:21;;;;;;;;;;;;;;;8.42;100.00;101919.75;10453839;28;20043;-77
2022/06/10 02:10:32;;;;;;;31.33;18.45;;;;;;;8.51;100.00;101930.00;10441561;28;19920;-77
2022/06/10 02:15:36;;;;;;;28.98;21.13;;;;;;;8.62;100.00;101929.06;10444113;28;20033;-77
2022/06/10 02:20:39;;;;;;;29.50;19.80;;;;;;;8.73;100.00;101922.00;10465294;28;20044;-77
2022/06/10 02:25:44;;;;;;;34.03;22.92;;;;;;;8.93;100.00;101925.13;10465505;28;20040;-77
2022/06/10 02:30:49;;;;;;;33.85;23.13;;;;;;;9.08;100.00;101930.56;10441045;28;20112;-77
2022/06/10 02:35:57;;;;;;;33.83;22.13;;;;;;;9.17;100.00;101930.28;10461237;28;20388;-77
2022/06/10 02:41:11;;;;;;;32.03;20.17;;;;;;;9.20;100.00;101933.09;10488350;28;20078;-78
2022/06/10 02:46:12;;;;;;;29.77;19.45;;;;;;;9.35;100.00;101936.78;10468009;28;20119;-77
2022/06/10 02:51:14;;;;;;;30.90;20.63;;;;;;;9.41;100.00;101941.56;10489694;28;20379;-77
2022/06/10 02:56:22;;;;;;;29.35;19.25;;;;;;;9.46;100.00;101947.09;10453081;28;20037;-78
2022/06/10 03:01:26;;;;;;;27.83;20.20;;;;;;;9.55;100.00;101940.81;10432668;28;20041;-78
2022/06/10 03:06:45;;;;;;;28.10;18.35;;;;;;;9.62;100.00;101955.19;10515688;28;20130;-77
2022/06/10 03:12:08;;;;;;;26.77;18.13;;;;;;;9.65;100.00;101942.34;10475407;28;20454;-77
2022/06/10 03:17:11;;;;;;;32.95;19.38;;;;;;;9.70;100.00;101951.41;10530369;28;20063;-77
2022/06/10 03:22:36;;;;;;;22.98;16.35;;;;;;;9.82;100.00;101950.41;10516276;28;20135;-77
2022/06/10 03:27:48;;;;;;;31.10;17.38;;;;;;;9.95;100.00;101958.28;10489210;28;20405;-78
2022/06/10 03:33:34;;;;;;;26.20;17.37;;;;;;;10.05;100.00;101958.91;10524282;28;20036;-77
2022/06/10 03:38:39;;;;;;;25.80;15.85;;;;;;;10.11;100.00;101960.25;10522624;28;20123;-77
2022/06/10 03:43:39;;;;;;;29.40;17.10;;;;;;;10.24;100.00;101958.44;10528882;28;20032;-78
2022/06/10 03:48:41;;;;;;;25.05;18.33;;;;;;;10.26;100.00;101959.47;10487785;28;20468;-77
2022/06/10 03:53:42;;;;;;;26.60;16.27;;;;;;;10.31;100.00;101951.91;10529102;28;20028;-78
2022/06/10 03:58:42;;;;;;;26.48;17.38;;;;;;;10.40;100.00;101957.78;10496485;28;20154;-78
2022/06/10 04:03:43;;;;;;;25.45;18.08;;;;;;;10.48;100.00;101963.53;10488790;28;20598;-78
2022/06/10 04:08:44;;;;;;;26.83;15.80;;;;;;;10.54;100.00;101967.44;10486289;28;20048;-77
2022/06/10 04:13:44;;;;;;;27.95;18.55;;;;;;;10.62;100.00;101969.66;10502310;28;20123;-77
2022/06/10 04:18:45;;;;;;;29.50;16.73;;;;;;;10.77;100.00;101969.75;10468811;28;20060;-77
2022/06/10 04:23:45;;;;;;;24.58;13.90;;;;;;;10.92;100.00;101978.59;10486250;28;20037;-78
2022/06/10 04:28:47;;;;;;;28.85;14.20;;;;;;;11.02;100.00;101986.22;10487603;28;20040;-77
2022/06/10 04:33:47;;;;;;;29.07;15.87;;;;;;;11.13;100.00;101989.53;10487072;28;20037;-77
2022/06/10 04:38:48;;;;;;;28.67;16.92;;;;;;;11.25;100.00;101991.09;10485208;28;20032;-78
2022/06/10 04:43:48;;;;;;;24.77;14.20;;;;;;;11.34;100.00;101989.06;10508975;28;20047;-78
2022/06/10 04:48:49;;;;;;;22.17;14.32;;;;;;;11.44;100.00;101995.78;10486164;28;20048;-78
2022/06/10 04:53:49;;;;;;;18.42;12.45;;;;;;;11.51;100.00;101992.75;10495193;28;20043;-78
2022/06/10 04:58:50;;;;;;;17.70;11.75;;;;;;;11.67;100.00;101989.31;10483949;28;20044;-77
2022/06/10 05:03:50;;;;;;;20.15;13.13;;;;;;;11.71;100.00;101996.56;10498528;28;20040;-78
2022/06/10 05:08:51;;;;;;;16.00;11.50;;;;;;;11.84;100.00;101978.97;10518876;28;20068;-75
2022/06/10 05:13:52;;;;;;;20.13;10.00;;;;;;;11.99;100.00;101986.84;10491083;28;20028;-76
2022/06/10 05:18:53;;;;;;;25.20;12.30;;;;;;;12.17;100.00;101987.06;10506688;28;20488;-77
2022/06/10 05:23:53;;;;;;;24.17;9.48;;;;;;;12.47;100.00;101982.72;10516536;28;20040;-78
2022/06/10 05:28:54;;;;;;;18.10;9.98;;;;;;;12.74;100.00;101984.19;10484199;28;20391;-76
2022/06/10 05:39:14;;;;;;;14.32;6.13;;;;;;;12.91;100.00;101982.53;10486238;28;20036;-76
2022/06/10 05:44:14;;;;;;;12.27;7.28;;;;;;;12.96;100.00;101995.91;10448884;28;20139;-77
2022/06/10 05:49:26;;;;;;;9.13;5.80;;;;;;;13.26;100.00;101995.78;10471985;28;20124;-77
2022/06/10 05:54:30;;;;;;;11.65;6.28;;;;;;;13.55;100.00;101999.13;10486645;28;20044;-77
2022/06/10 05:59:33;;;;;;;13.20;6.30;;;;;;;13.83;100.00;101997.97;10498613;28;20064;-79
2022/06/10 06:04:34;;;;;;;10.32;3.78;;;;;;;14.16;100.00;102009.34;10497766;28;20040;-75
2022/06/10 06:09:34;;;;;;;11.85;4.90;;;;;;;14.40;98.98;102008.78;10485041;28;20032;-76
2022/06/10 06:14:35;;;;;;;11.77;3.42;;;;;;;14.56;93.23;102017.47;10498016;28;20075;-76
2022/06/10 06:19:35;;;;;;;12.80;3.83;;;;;;;14.54;89.03;102014.72;10487100;28;20036;-75
2022/06/10 06:24:36;;;;;;;5.53;2.83;;;;;;;14.75;90.45;102019.28;10487640;28;20400;-74
2022/06/10 06:29:37;;;;;;;8.57;2.83;;;;;;;15.01;90.55;102024.91;10484110;28;20074;-77
2022/06/10 06:34:38;;;;;;;7.60;3.58;;;;;;;15.19;86.08;102024.91;10495910;28;20514;-77
2022/06/10 06:39:38;;;;;;;7.82;4.40;;;;;;;15.17;85.63;102027.44;10494641;28;20050;-77
2022/06/10 06:44:40;;;;;;;6.00;2.50;;;;;;;15.07;85.21;102027.84;10510110;28;20379;-76
2022/06/10 06:49:41;;;;;;;10.65;3.10;;;;;;;15.20;85.46;102031.97;10510760;28;20074;-77
2022/06/10 06:54:41;;;;;;;8.52;3.63;;;;;;;15.51;85.88;102025.50;10456146;28;20131;-76
2022/06/10 06:59:42;;;;;;;9.35;3.13;;;;;;;15.70;82.77;102027.22;10484493;28;20071;-76
2022/06/10 07:04:42;;;;;;;7.28;2.22;;;;;;;15.86;82.65;102029.72;10512595;28;20444;-76
2022/06/10 07:09:43;;;;;;;6.03;2.60;;;;;;;15.96;78.46;102025.78;10489156;28;20039;-77
2022/06/10 07:14:43;;;;;;;6.60;3.33;;;;;;;15.69;81.51;102021.06;10506134;28;20062;-76
2022/06/10 07:19:48;;;;;;;8.23;3.58;;;;;;;15.73;81.17;102019.44;10511280;28;20048;-78
2022/06/10 07:24:49;;;;;;;10.77;2.85;;;;;;;16.09;82.24;102023.69;10484574;28;20123;-76
2022/06/10 07:29:49;;;;;;;7.05;2.60;;;;;;;16.60;80.52;102025.81;10494987;28;20058;-77
2022/06/10 07:34:50;;;;;;;5.00;2.20;;;;;;;17.13;76.77;102020.00;10489057;28;20045;-76
2022/06/10 07:39:51;;;;;;;11.57;3.25;;;;;;;17.41;74.98;102014.06;10496588;28;20134;-78
2022/06/10 07:44:54;;;;;;;19.97;4.63;;;;;;;17.30;75.51;102021.56;10502426;28;20500;-79
2022/06/10 07:49:54;;;;;;;6.95;2.13;;;;;;;17.31;73.30;102025.13;10506867;28;20390;-78
2022/06/10 07:54:55;;;;;;;12.10;2.20;;;;;;;17.31;74.54;102022.47;10508047;28;20050;-77
2022/06/10 07:59:55;;;;;;;10.52;3.97;;;;;;;17.82;72.53;102020.81;10469166;28;20036;-78
2022/06/10 08:04:56;;;;;;;9.23;4.45;;;;;;;18.15;71.78;102021.13;10513473;28;20044;-77
2022/06/10 08:09:56;;;;;;;9.48;4.15;;;;;;;18.03;69.99;102020.69;10509701;28;20138;-79
2022/06/10 08:14:57;;;;;;;28.60;19.33;;;;;;;17.88;71.44;102021.94;10500218;28;20048;-79
2022/06/10 08:19:57;;;;;;;9.02;3.35;;;;;;;18.31;69.64;102006.69;10491636;28;20139;-79
2022/06/10 08:24:59;;;;;;;6.78;2.47;;;;;;;19.01;65.01;102021.31;10505829;28;20410;-78
2022/06/10 08:29:59;;;;;;;6.20;2.57;;;;;;;20.10;62.59;102009.38;10473220;28;20036;-77
2022/06/10 08:35:00;;;;;;;10.77;1.43;;;;;;;21.00;58.71;102011.59;10491464;28;20450;-76
2022/06/10 08:40:01;;;;;;;17.10;4.25;;;;;;;20.69;58.44;102016.19;10494438;28;20067;-75
2022/06/10 08:45:27;;;;;;;16.30;2.17;;;;;;;20.77;59.75;102013.72;10507596;28;20064;-75
2022/06/10 08:50:28;;;;;;;6.93;1.92;;;;;;;20.80;60.03;102014.72;10464439;28;21303;-76
2022/06/10 08:55:50;;;;;;;4.00;2.20;;;;;;;20.77;59.79;102022.59;10481101;28;20048;-75
2022/06/10 09:00:50;;;;;;;4.18;1.52;;;;;;;21.09;57.68;102016.25;10481311;28;20131;-76
2022/06/10 09:05:53;;;;;;;6.75;2.20;;;;;;;21.33;54.25;101999.00;10470791;28;20032;-76
2022/06/10 09:11:33;;;;;;;7.28;2.25;;;;;;;21.88;57.03;102001.03;10442345;28;20076;-76
2022/06/10 09:16:58;;;;;;;7.85;2.10;;;;;;;21.93;53.16;102008.22;10441579;28;20052;-76
2022/06/10 09:22:13;;;;;;;6.70;1.85;;;;;;;21.58;55.32;102007.50;10442486;28;20048;-76
2022/06/10 09:27:38;;;;;;;12.90;4.68;;;;;;;22.01;53.14;101997.72;10444620;28;20477;-76
2022/06/10 09:32:41;;;;;;;6.22;1.95;;;;;;;23.02;51.64;101997.56;10441775;28;20401;-77
2022/06/10 09:37:49;;;;;;;5.90;1.70;;;;;;;24.66;51.21;101999.28;10461038;28;20140;-75
2022/06/10 09:42:55;;;;;;;7.40;2.05;;;;;;;27.55;45.32;101988.00;10525791;28;20032;-76
2022/06/10 09:48:26;;;;;;;7.15;1.77;;;;;;;28.17;39.10;101991.22;10512048;28;20040;-76
2022/06/10 09:53:48;;;;;;;9.30;2.03;;;;;;;28.30;40.13;101995.59;10515080;28;20404;-76
2022/06/10 09:59:11;;;;;;;8.13;2.13;;;;;;;28.97;38.07;101986.88;10484568;28;20512;-77
2022/06/10 10:04:35;;;;;;;5.95;2.22;;;;;;;27.78;39.91;101992.34;10488288;28;20123;-79
2022/06/10 10:09:59;;;;;;;7.93;2.85;;;;;;;27.56;39.73;101986.22;10507717;28;20043;-79
2022/06/10 10:15:21;;;;;;;9.82;2.45;;;;;;;26.34;42.14;101988.31;10471747;28;20503;-79
2022/06/10 10:20:27;;;;;;;;;;;;;;;25.25;47.09;101981.81;10498211;28;20040;-78
2022/06/10 10:25:28;;;;;;;6.93;2.50;;;;;;;24.48;48.17;101980.47;10522763;28;19924;-78
2022/06/10 10:30:36;;;;;;;5.77;2.30;;;;;;;24.48;47.32;101991.16;10494478;28;20098;-78
2022/06/10 10:35:45;;;;;;;10.10;2.70;;;;;;;23.88;49.00;101982.56;10474131;28;20563;-78
2022/06/10 10:40:47;;;;;;;10.18;3.03;;;;;;;24.03;48.25;101973.84;10483547;28;20048;-78
2022/06/10 10:46:02;;;;;;;10.43;3.50;;;;;;;25.60;47.84;101981.06;10487053;28;20392;-77
2022/06/10 10:51:11;;;;;;;11.93;2.67;;;;;;;25.36;45.91;101977.38;10519098;28;20058;-78
2022/06/10 10:56:12;;;;;;;9.88;2.78;;;;;;;25.20;47.42;101972.88;10510235;28;20419;-77
2022/06/10 11:01:45;;;;;;;8.20;2.83;;;;;;;24.81;48.34;101985.16;10448754;28;20099;-78
2022/06/10 11:06:45;;;;;;;9.57;3.40;;;;;;;24.27;50.85;101985.63;10448210;28;20152;-78
2022/06/10 11:11:46;;;;;;;7.70;2.13;;;;;;;23.55;52.22;101978.66;10431383;28;20033;-78
2022/06/10 11:17:01;;;;;;;15.27;2.53;;;;;;;23.17;51.34;101980.84;10430019;28;20063;-78
2022/06/10 11:22:02;;;;;;;8.65;2.30;;;;;;;24.22;51.52;101976.69;10449333;28;20778;-78
2022/06/10 11:27:20;;;;;;;7.10;3.33;;;;;;;25.04;48.01;101970.13;10449426;28;20087;-78
2022/06/10 11:32:23;;;;;;;8.98;3.03;;;;;;;24.52;49.74;101969.78;10430869;28;20048;-79
2022/06/10 11:37:34;;;;;;;7.95;2.65;;;;;;;24.28;49.75;101977.59;10430149;28;20059;-78
2022/06/10 11:42:46;;;;;;;12.97;3.80;;;;;;;24.89;48.13;101967.38;10469442;28;20044;-78
2022/06/10 11:48:00;;;;;;;9.38;3.33;;;;;;;26.66;45.28;101965.91;10512475;28;20434;-78
2022/06/10 11:53:12;;;;;;;13.65;3.75;;;;;;;26.81;43.96;101956.03;10490218;28;20039;-78
2022/06/10 12:03:43;;;;;;;12.55;4.90;;;;;;;26.78;43.46;101954.25;10529000;28;20479;-79
2022/06/10 12:08:44;;;;;;;17.92;3.95;;;;;;;28.67;41.35;101952.13;10528922;28;20147;-78
2022/06/10 12:14:11;;;;;;;11.67;4.27;;;;;;;27.77;42.36;101935.91;10529205;28;20051;-78
2022/06/10 12:19:14;;;;;;;8.98;3.60;;;;;;;29.10;39.68;101936.41;10527820;28;20495;-79
2022/06/10 12:24:16;;;;;;;8.27;3.55;;;;;;;28.10;41.92;101942.78;10526887;28;20032;-78
2022/06/10 12:29:23;;;;;;;10.38;4.43;;;;;;;26.66;45.00;101940.88;10530138;28;20040;-78
2022/06/10 12:34:47;;;;;;;6.93;2.55;;;;;;;26.13;46.70;101943.59;10529294;28;20116;-80
2022/06/10 12:39:53;;;;;;;10.00;3.15;;;;;;;27.57;44.02;101933.34;10528268;28;20476;-80
2022/06/10 12:44:56;;;;;;;8.75;3.17;;;;;;;27.91;41.13;101923.25;10511778;28;20110;-81
2022/06/10 12:49:58;;;;;;;5.28;2.10;;;;;;;27.73;41.88;101921.56;10503852;28;20048;-78
2022/06/10 12:55:05;;;;;;;7.43;2.33;;;;;;;26.19;43.55;101915.88;10509485;28;20032;-80
2022/06/10 13:00:17;;;;;;;8.70;3.05;;;;;;;24.47;47.76;101913.53;10528563;28;20108;-80
2022/06/10 13:05:31;;;;;;;10.95;3.63;;;;;;;23.43;49.71;101923.31;10529033;28;20055;-79
2022/06/10 13:10:32;;;;;;;11.45;2.83;;;;;;;22.58;51.71;101928.44;10526073;28;20032;-79
2022/06/10 13:15:33;;;;;;;7.95;2.40;;;;;;;22.11;56.37;101926.78;10526957;28;20518;-79
2022/06/10 13:20:37;;;;;;;8.37;2.97;;;;;;;21.74;56.36;101924.41;10526799;28;20051;-78
2022/06/10 13:25:38;;;;;;;31.73;5.30;;;;;;;21.97;58.96;101924.78;10509268;28;20040;-79
2022/06/10 13:30:39;;;;;;;8.53;3.07;;;;;;;23.86;55.94;101912.16;10525401;28;20427;-78
2022/06/10 13:35:43;;;;;;;;;;;;;;;27.83;43.69;101907.16;10526550;28;20109;-78
2022/06/10 13:41:48;;;;;;;8.15;2.45;;;;;;;28.14;41.70;101898.84;10527595;28;19919;-79
2022/06/10 13:46:22;;;;;;;10.27;2.75;;;;;;;26.09;46.25;101913.19;10473435;28;20028;-79
2022/06/10 13:51:39;;;;;;;4.43;2.10;;;;;;;25.69;46.99;101909.59;10455130;28;20033;-81
2022/06/10 13:56:42;;;;;;;8.75;2.85;;;;;;;25.10;50.50;101910.31;10470866;28;20396;-81
2022/06/10 14:01:43;;;;;;;9.60;2.25;;;;;;;27.19;44.17;101906.66;10484174;28;20516;-81
2022/06/10 14:06:48;;;;;;;14.50;10.67;;;;;;;27.19;41.85;101901.28;10468646;28;20070;-81
2022/06/10 14:12:07;;;;;;;10.45;4.30;;;;;;;24.53;48.25;101907.34;10456456;28;20497;-80
2022/06/10 14:17:11;;;;;;;9.57;2.15;;;;;;;23.65;50.95;101905.72;10483322;28;20045;-80
2022/06/10 14:22:15;;;;;;;6.18;2.65;;;;;;;23.29;52.25;101904.47;10481669;28;20075;-81
2022/06/10 14:27:22;;;;;;;5.35;2.17;;;;;;;23.21;52.86;101908.78;10479099;28;20034;-82
2022/06/10 14:32:32;;;;;;;5.47;2.20;;;;;;;23.37;53.86;101899.22;10471820;28;20029;-81
2022/06/10 14:37:39;;;;;;;7.18;2.60;;;;;;;23.16;51.54;101904.28;10472035;28;20040;-81
2022/06/10 14:42:47;;;;;;;7.57;2.15;;;;;;;22.99;53.36;101903.19;10479633;28;20079;-82
2022/06/10 14:48:04;;;;;;;7.40;2.28;;;;;;;22.83;55.00;101905.66;10483287;28;20462;-81
2022/06/10 14:53:18;;;;;;;6.70;2.42;;;;;;;23.02;54.20;101903.22;10487316;28;20086;-80
2022/06/10 14:58:21;;;;;;;10.70;3.30;;;;;;;23.74;52.25;101903.13;10470903;28;20484;-81
2022/06/10 15:03:25;;;;;;;8.57;3.00;;;;;;;23.84;52.03;101898.78;10489347;28;20668;-80
2022/06/10 15:08:25;;;;;;;9.27;1.90;;;;;;;23.43;54.03;101894.81;10460825;28;20055;-80
2022/06/10 15:13:30;;;;;;;3.93;1.67;;;;;;;22.82;55.33;101895.84;10454932;28;20033;-78
2022/06/10 15:18:31;;;;;;;6.90;2.75;;;;;;;22.21;59.73;101894.06;10489924;28;20039;-79
2022/06/10 15:23:32;;;;;;;9.23;1.83;;;;;;;21.78;59.65;101891.59;10486461;28;20044;-82
2022/06/10 15:28:34;;;;;;;10.37;2.30;;;;;;;21.68;60.29;101884.31;10490033;28;20103;-80
2022/06/10 15:33:34;;;;;;;6.60;4.15;;;;;;;21.48;62.12;101882.16;10531520;28;20081;-80
2022/06/10 15:43:59;;;;;;;5.35;2.00;;;;;;;21.37;64.53;101879.28;10487503;28;20044;-81
2022/06/10 15:49:00;;;;;;;5.97;3.00;;;;;;;21.34;63.89;101875.69;10492820;28;20037;-80
2022/06/10 15:54:02;;;;;;;7.43;2.00;;;;;;;21.46;59.63;101877.66;10487087;28;20048;-79
2022/06/10 15:59:03;;;;;;;9.63;3.42;;;;;;;21.73;64.31;101876.41;10430391;28;20143;-78
2022/06/10 16:04:03;;;;;;;6.80;2.63;;;;;;;21.95;62.76;101869.69;10468546;28;20029;-80
2022/06/10 16:09:05;;;;;;;4.07;2.27;;;;;;;22.26;61.93;101870.16;10504855;28;20036;-79
2022/06/10 16:14:05;;;;;;;8.38;4.28;;;;;;;22.52;59.48;101869.69;10530304;28;20119;-79
2022/06/10 16:19:06;;;;;;;56.23;44.40;;;;;;;22.68;58.28;101861.00;10489486;28;20044;-80
2022/06/10 16:24:16;;;;;;;5.00;2.20;;;;;;;22.65;56.98;101852.97;10510640;28;20044;-79
2022/06/10 16:29:26;;;;;;;5.85;2.63;;;;;;;22.71;57.14;101854.78;10506891;28;20127;-80
2022/06/10 16:34:27;;;;;;;3.60;1.38;;;;;;;22.75;55.13;101843.28;10469698;28;20439;-79
2022/06/10 16:39:27;;;;;;;3.00;2.37;;;;;;;22.50;56.89;101850.97;10485019;28;20171;-81
2022/06/10 16:44:34;;;;;;;5.10;1.70;;;;;;;22.41;61.67;101859.72;10486625;28;20036;-80
2022/06/10 16:49:37;;;;;;;94.18;77.50;;;;;;;22.51;61.60;101846.53;10488093;28;20067;-79
2022/06/10 16:54:38;;;;;;;12.98;4.25;;;;;;;22.35;60.75;101840.97;10467164;28;20032;-78
2022/06/10 16:59:39;;;;;;;5.83;3.10;;;;;;;22.43;58.17;101841.97;10503270;28;20040;-81
2022/06/10 17:04:39;;;;;;;6.50;3.03;;;;;;;22.41;60.10;101850.81;10451285;28;20072;-80
2022/06/10 17:09:40;;;;;;;16.10;8.30;;;;;;;22.25;60.41;101857.72;10486365;28;20528;-82
2022/06/10 17:14:41;;;;;;;6.77;2.60;;;;;;;22.04;61.03;101837.84;10500115;28;20044;-79
2022/06/10 17:19:42;;;;;;;5.63;2.17;;;;;;;21.91;64.06;101846.53;10483002;28;20362;-78
2022/06/10 17:24:43;;;;;;;7.90;3.75;;;;;;;21.76;64.37;101844.47;10484765;28;20075;-78
2022/06/10 17:29:44;;;;;;;9.10;3.67;;;;;;;21.73;64.27;101839.09;10465263;28;20488;-78
2022/06/10 17:34:46;;;;;;;7.10;2.33;;;;;;;21.86;63.62;101838.44;10449153;28;20036;-78
2022/06/10 17:39:47;;;;;;;9.35;3.25;;;;;;;21.79;62.29;101831.22;10485713;28;20037;-78
2022/06/10 17:44:47;;;;;;;7.53;2.53;;;;;;;21.63;60.78;101835.41;10466840;28;20484;-78
2022/06/10 17:49:49;;;;;;;7.95;3.22;;;;;;;21.35;65.71;101843.75;10465817;28;20044;-77
2022/06/10 17:54:50;;;;;;;;;;;;;;;21.13;66.50;101837.13;10467079;28;20066;-78
2022/06/10 17:59:53;;;;;;;6.60;1.85;;;;;;;20.89;65.45;101841.09;10482054;28;19925;-77
2022/06/10 18:04:54;;;;;;;6.18;2.35;;;;;;;20.69;67.00;101843.28;10465328;28;20064;-78
2022/06/10 18:09:54;;;;;;;5.32;2.03;;;;;;;20.46;67.59;101835.72;10484147;28;20118;-78
2022/06/10 18:14:57;;;;;;;6.22;4.30;;;;;;;20.27;71.57;101842.41;10482385;28;20489;-77
2022/06/10 18:19:58;;;;;;;9.95;2.13;;;;;;;20.08;71.08;101843.69;10464939;28;20039;-78
2022/06/10 18:24:58;;;;;;;7.25;2.53;;;;;;;19.91;71.51;101838.00;10482121;28;20513;-77
2022/06/10 18:30:01;;;;;;;4.35;2.55;;;;;;;19.77;71.35;101841.19;10483150;28;20032;-78
2022/06/10 18:35:10;;;;;;;6.32;3.03;;;;;;;19.66;70.92;101835.56;10465855;28;20056;-77
2022/06/10 18:40:16;;;;;;;10.73;2.75;;;;;;;19.65;71.24;101847.06;10482699;28;20493;-78
2022/06/10 18:45:17;;;;;;;5.97;2.65;;;;;;;19.50;72.01;101841.34;10483332;28;20036;-77
2022/06/10 18:50:25;;;;;;;5.55;2.05;;;;;;;19.39;72.30;101838.44;10481162;28;20469;-78
2022/06/10 18:55:27;;;;;;;6.38;2.53;;;;;;;19.26;74.30;101839.84;10481451;28;20024;-78
2022/06/10 19:00:30;;;;;;;9.77;3.07;;;;;;;19.11;75.69;101835.03;10480158;28;20095;-77
2022/06/10 19:05:32;;;;;;;6.78;3.38;;;;;;;18.95;75.00;101840.72;10464677;28;20263;-78
2022/06/10 19:10:36;;;;;;;8.57;2.53;;;;;;;18.87;75.36;101848.44;10469013;28;20123;-77
2022/06/10 19:15:41;;;;;;;6.32;2.28;;;;;;;18.75;75.15;101835.75;10444910;28;20040;-78
2022/06/10 19:20:42;;;;;;;5.45;2.13;;;;;;;18.66;77.84;101835.47;10477314;28;20046;-78
2022/06/10 19:25:45;;;;;;;6.03;2.95;;;;;;;18.61;79.73;101848.56;10523032;28;20097;-78
2022/06/10 19:30:46;;;;;;;9.93;2.58;;;;;;;18.57;79.34;101841.38;10531877;28;20398;-78
2022/06/10 19:35:46;;;;;;;4.38;2.30;;;;;;;18.56;76.44;101840.50;10510482;28;20040;-78
2022/06/10 19:40:48;;;;;;;6.03;2.35;;;;;;;18.53;77.84;101847.44;10459208;28;20124;-78
2022/06/10 19:45:49;;;;;;;5.43;2.50;;;;;;;18.41;79.79;101855.91;10441393;28;20044;-78
2022/06/10 19:51:00;;;;;;;6.22;2.83;;;;;;;18.30;79.79;101855.56;10503407;28;20038;-78
2022/06/10 19:56:04;;;;;;;11.97;5.37;;;;;;;18.18;78.74;101864.03;10494048;28;20480;-79
2022/06/10 20:01:20;;;;;;;9.77;3.83;;;;;;;18.14;81.04;101870.97;10487386;28;20036;-81
2022/06/10 20:06:21;;;;;;;5.57;2.53;;;;;;;17.97;81.40;101873.06;10495270;28;20044;-81
2022/06/10 20:11:21;;;;;;;6.30;2.65;;;;;;;17.82;81.18;101873.44;10480979;28;20502;-81
2022/06/10 20:16:24;;;;;;;10.07;3.58;;;;;;;17.82;81.04;101883.13;10527606;28;20114;-81
2022/06/10 20:21:26;;;;;;;6.75;2.92;;;;;;;17.77;81.74;101882.97;10509892;28;20040;-81
2022/06/10 20:26:31;;;;;;;8.48;3.30;;;;;;;17.63;82.18;101874.56;10494438;28;20123;-81
2022/06/10 20:31:40;;;;;;;7.53;3.83;;;;;;;17.57;82.05;101877.88;10501138;28;20044;-81
2022/06/10 20:36:40;;;;;;;4.88;2.67;;;;;;;17.51;82.26;101882.06;10508674;28;20047;-81
2022/06/10 20:41:43;;;;;;;5.47;2.55;;;;;;;17.43;82.48;101885.34;10514128;28;20564;-81
2022/06/10 20:46:46;;;;;;;4.22;2.55;;;;;;;17.26;82.88;101889.13;10483858;28;20037;-81
2022/06/10 20:51:46;;;;;;;8.70;3.25;;;;;;;17.26;81.68;101883.84;10489472;28;20511;-81
2022/06/10 20:56:47;;;;;;;4.40;2.20;;;;;;;17.29;81.85;101887.47;10486068;28;20079;-81
2022/06/10 21:01:53;;;;;;;6.65;2.70;;;;;;;17.31;81.41;101882.25;10492748;28;20051;-81
2022/06/10 21:07:35;;;;;;;4.70;2.47;;;;;;;17.36;81.70;101887.69;10480493;28;20028;-81
2022/06/10 21:12:17;;;;;;;6.72;2.83;;;;;;;17.25;82.74;101887.31;10470526;28;20040;-81
2022/06/10 21:17:28;;;;;;;6.03;3.78;;;;;;;17.21;82.54;101899.53;10509297;28;20040;-81
2022/06/10 21:22:28;;;;;;;13.18;5.43;;;;;;;17.09;83.92;101894.69;10449786;28;20049;-81
2022/06/10 21:27:29;;;;;;;5.38;3.25;;;;;;;16.91;84.60;101894.84;10489816;28;20474;-81
2022/06/10 21:32:29;;;;;;;3.70;2.78;;;;;;;16.81;84.87;101893.63;10516562;28;20048;-80
2022/06/10 21:37:30;;;;;;;10.13;3.40;;;;;;;16.73;85.80;101895.06;10522769;28;20501;-79
2022/06/10 21:47:49;;;;;;;34.53;18.75;;;;;;;16.72;86.72;101893.28;10465527;28;20045;-81
2022/06/10 21:52:51;;;;;;;25.08;11.85;;;;;;;16.73;87.55;101892.44;10455159;28;20135;-81
2022/06/10 21:57:52;;;;;;;15.23;8.43;;;;;;;16.77;87.36;101898.72;10501021;28;20036;-81
2022/06/10 22:02:52;;;;;;;7.22;5.03;;;;;;;16.71;87.38;101902.03;10499337;28;20036;-81
2022/06/10 22:07:53;;;;;;;8.93;5.32;;;;;;;16.78;86.57;101895.22;10498488;28;20060;-80
2022/06/10 22:12:53;;;;;;;6.03;3.65;;;;;;;16.80;86.31;101898.84;10475506;28;20048;-79
2022/06/10 22:17:57;;;;;;;9.02;3.67;;;;;;;16.73;86.47;101911.81;10495222;28;20373;-78
2022/06/10 22:23:00;;;;;;;9.70;4.22;;;;;;;16.70;86.26;101913.47;10463911;28;20515;-78
2022/06/10 22:28:01;;;;;;;6.78;3.92;;;;;;;16.59;87.36;101908.66;10488192;28;20123;-79
2022/06/10 22:33:02;;;;;;;6.40;3.50;;;;;;;16.59;87.31;101911.28;10465635;28;20025;-77
2022/06/10 22:38:05;;;;;;;7.00;2.78;;;;;;;16.55;88.08;101916.38;10480042;28;20032;-78
2022/06/10 22:43:06;;;;;;;6.50;3.03;;;;;;;16.38;87.42;101911.31;10510149;28;20036;-77
2022/06/10 22:48:07;;;;;;;9.98;3.33;;;;;;;16.18;87.43;101928.09;10488828;28;20431;-77
2022/06/10 22:53:10;;;;;;;6.22;2.80;;;;;;;15.91;88.33;101920.81;10489544;28;20052;-77
2022/06/10 22:58:21;;;;;;;5.93;3.70;;;;;;;15.81;89.50;101915.09;10496409;28;20040;-77
2022/06/10 23:03:42;;;;;;;7.40;3.55;;;;;;;15.77;90.90;101914.94;10478461;28;20098;-77
2022/06/10 23:14:06;;;;;;;15.13;5.70;;;;;;;15.68;92.66;101916.34;10514912;28;20036;-77
2022/06/10 23:19:10;;;;;;;7.50;3.45;;;;;;;15.56;92.92;101915.78;10488589;28;20086;-78
2022/06/10 23:24:16;;;;;;;7.10;3.00;;;;;;;15.36;93.41;101929.00;10477583;28;20380;-78
2022/06/10 23:29:16;;;;;;;9.57;4.72;;;;;;;15.11;93.85;101933.16;10491620;28;20078;-78
2022/06/10 23:34:25;;;;;;;8.15;3.35;;;;;;;14.80;94.40;101944.91;10447256;28;20116;-78
2022/06/10 23:39:26;;;;;;;7.85;4.05;;;;;;;14.57;96.18;101951.66;10472778;28;20395;-78